マヘ島 の空港の天気 - METARとTAF

セーシェル国際空港 ( FSIA / SEZ ) - セーシェル マヘ島
飛行場実況気象(Metar)
観測時間05/28 15:00 SCT (05/28 11:00 UTC)
風向・風速東南東 4m/s
視程10km以上
天気現象
少しの雲 雲底高度 610m
気温30℃
湿度66%
気圧1009hPa
METARFSIA 281100Z 12007KT 9999 FEW020 30/23 Q1009 NOSIG
過去の天気等 Google飛行場航空写真 Wunderground天気予報

過去48時間のMETAR

飛行場予報(TAF)
発表時間: 5/28 15:02 SCT (5/28 11:02 UTC)
予報対象時間: 28日16時 SCT ~ 29日16時 SCT
風向・風速南東 5m/s
視程10km以上
少しの雲 雲底高度 730m
TAF FSIA 281102Z 2812/2912 13010KT 9999 FEW024